Latest Weather Observations for Moruya Airport

IDN60901

Issued at 7:31 am EST Friday 3 July 2015 (issued every 10 minutes, with the page automatically refreshed every 10 minutes)

About weather observations | Map of Canberra area stations | Latest observations for Canberra area | Other Formats
Station Details ID: 069148 Name: MORUYA AIRPORT AWS Lat: -35.90 Lon: 150.14 Height: 4.0 m
Data from the previous 72 hours. | See also: Recent months for locations in Aust Capital Territory
Date/Time
EST
Tmp

°C
App
Tmp
°C
Dew
Point
°C
Rel
Hum
%
Delta-T

°C
Wind Press
QNH
hPa
Press
MSL
hPa
Rain
since
9 am
mm
Dir
 
Spd
km/h
Gust
km/h
Spd
kts
Gust
kts
03/07:30am -0.3 -3.7 -0.3 100 0.0 SW 7 9 4 5 1026.5 1026.5 1.6
03/07:00am 0.0 -3.3 0.0 100 0.0 W 7 9 4 5 1026.3 1026.3 1.6
03/06:30am -0.6 -4.0 -0.6 100 0.0 WSW 7 11 4 6 1025.9 1025.9 1.6
03/05:30am 0.0 -3.1 0.0 100 0.0 WSW 6 7 3 4 1025.3 1025.3 1.6
03/05:00am 0.7 -1.3 0.1 96 0.2 CALM 0 0 0 0 1024.8 1024.8 1.6
03/04:30am 2.8 -0.7 1.3 90 0.6 WSW 9 13 5 7 1024.7 1024.7 1.6
03/04:00am 1.6 -1.9 1.5 99 0.0 WSW 9 11 5 6 1024.5 1024.5 1.6
03/03:30am 2.1 -1.8 1.1 93 0.4 WSW 11 13 6 7 1024.5 1024.5 1.6
03/03:00am 4.4 0.9 1.1 79 1.3 W 9 13 5 7 1024.6 1024.6 1.6
03/02:30am 4.2 0.7 1.1 80 1.2 W 9 15 5 8 1024.6 1024.6 1.6
03/02:00am 4.6 0.8 1.5 80 1.2 WSW 11 15 6 8 1024.5 1024.5 1.6
03/01:30am 5.5 1.6 1.1 73 1.7 W 11 15 6 8 1024.6 1024.6 1.6
03/01:00am 4.1 0.7 1.6 84 1.0 NW 9 15 5 8 1024.5 1024.5 1.6
03/12:30am 5.6 1.7 1.0 72 1.8 W 11 17 6 9 1024.6 1024.6 1.6
 
Date/Time
EST
Tmp

°C
App
Tmp
°C
Dew
Point
°C
Rel
Hum
%
Delta-T

°C
Wind Press
QNH
hPa
Press
MSL
hPa
Rain
since
9 am
mm
Dir
 
Spd
km/h
Gust
km/h
Spd
kts
Gust
kts
02/11:30pm 5.8 2.3 1.2 72 1.8 W 9 15 5 8 1025.0 1025.0 1.6
02/11:00pm 6.3 2.4 1.2 70 2.0 W 11 17 6 9 1024.6 1024.6 1.6
02/10:30pm 6.0 2.1 1.3 72 1.9 WSW 11 15 6 8 1024.5 1024.5 1.6
02/10:00pm 5.5 2.2 2.3 80 1.3 WNW 9 13 5 7 1024.1 1024.1 1.4
02/09:30pm 3.3 -0.6 3.3 100 0.0 SW 13 17 7 9 1023.7 1023.7 1.4
02/08:30pm 2.4 -0.5 2.4 100 0.0 W 7 11 4 6 1023.3 1023.3 1.4
02/08:00pm 2.9 0.2 2.9 100 0.0 W 6 9 3 5 1022.9 1022.9 1.4
02/07:30pm 3.9 0.7 3.3 96 0.2 W 9 13 5 7 1022.5 1022.5 1.4
02/07:00pm 4.8 2.1 2.8 87 0.8 WSW 6 7 3 4 1022.1 1022.1 1.4
02/06:30pm 6.8 4.2 1.1 67 2.3 SW 4 9 2 5 1021.2 1021.2 1.4
02/05:30pm 9.5 4.6 1.7 58 3.2 WSW 17 24 9 13 1019.8 1019.8 1.4
02/05:00pm 10.2 4.9 1.8 56 3.5 SSW 19 32 10 17 1019.3 1019.3 1.4
02/04:30pm 9.8 5.6 3.8 66 2.6 SSW 15 22 8 12 1018.5 1018.5 1.4
02/04:00pm 9.9 5.5 6.4 79 1.6 S 19 24 10 13 1017.9 1017.9 1.4
02/03:30pm 9.1 1.1 7.4 89 0.8 SSW 39 63 21 34 1017.2 1017.2 1.4
02/03:09pm 12.9 9.6 8.0 72 2.4 NW 15 54 8 29 1016.6 1016.6 0.4
02/03:00pm 15.4 12.7 7.2 58 4.0 NW 11 15 6 8 1014.7 1014.7 0.0
02/02:30pm 14.4 10.2 5.7 56 4.1 NW 17 28 9 15 1014.3 1014.3 0.0
02/02:00pm 15.0 10.4 5.8 54 4.4 NW 19 28 10 15 1014.4 1014.4 0.0
02/01:30pm 15.2 10.7 6.0 54 4.4 WNW 19 30 10 16 1014.8 1014.8 0.0
02/01:00pm 14.6 11.4 6.7 59 3.8 NW 13 24 7 13 1015.4 1015.4 0.0
02/12:30pm 14.7 10.5 5.5 54 4.4 NW 17 28 9 15 1015.3 1015.3 0.0
02/12:00pm 15.6 12.0 5.2 50 4.9 NNW 13 19 7 10 1015.6 1015.6 0.0
02/11:30am 16.6 13.0 4.9 46 5.6 WNW 13 24 7 13 1016.3 1016.3 0.0
02/11:00am 15.8 12.2 4.8 48 5.2 WNW 13 20 7 11 1016.9 1016.9 0.0
02/10:30am 15.2 11.9 4.3 48 5.1 WNW 11 19 6 10 1016.9 1016.9 0.0
02/10:00am 14.6 11.6 4.0 49 4.8 WNW 9 17 5 9 1016.9 1016.9 0.0
02/09:30am 14.0 11.0 4.3 52 4.5 NW 9 15 5 8 1016.7 1016.7 0.0
02/09:00am 13.0 10.0 3.9 54 4.1 NNW 9 13 5 7 1016.9 1016.9 0.0
02/08:30am 11.8 8.6 3.3 56 3.7 NW 9 17 5 9 1016.9 1016.9 0.0
02/08:00am 10.8 6.5 3.1 59 3.3 WNW 15 20 8 11 1017.0 1017.0 0.0
02/07:30am 10.1 5.4 2.9 61 3.1 WNW 17 24 9 13 1017.0 1017.0 0.0
02/07:00am 9.0 4.6 2.8 65 2.6 W 15 24 8 13 1017.2 1017.2 0.0
02/06:30am 7.5 3.5 2.8 72 2.0 W 13 17 7 9 1017.7 1017.7 0.0
02/06:00am 4.6 1.7 2.8 88 0.7 N 7 11 4 6 1017.7 1017.7 0.0
02/05:30am 4.7 1.6 3.8 94 0.4 NW 9 15 5 8 1017.6 1017.6 0.0
02/05:00am 1.9 -0.9 1.9 100 0.0 N 6 7 3 4 1017.9 1017.9 0.0
02/04:30am 2.5 -0.4 2.5 100 0.0 N 7 11 4 6 1017.8 1017.8 0.0
02/04:00am 2.8 0.1 2.8 100 0.0 NNW 6 9 3 5 1018.2 1018.2 0.0
02/03:30am 2.6 1.0 2.2 97 0.2 CALM 0 6 0 3 1018.8 1018.8 0.0
02/03:00am 2.1 -0.7 2.0 99 0.0 W 6 11 3 6 1019.2 1019.2 0.0
02/02:30am 3.1 1.0 1.9 92 0.5 E 2 7 1 4 1019.6 1019.6 0.0
02/02:00am 6.1 3.1 4.1 87 0.8 W 9 13 5 7 1019.7 1019.7 0.0
02/01:30am 4.3 2.0 2.8 90 0.6 WNW 4 7 2 4 1019.8 1019.8 0.0
02/01:00am 5.9 2.7 5.2 95 0.3 W 11 17 6 9 1019.9 1019.9 0.0
02/12:30am 3.0 0.2 3.0 100 0.0 WNW 7 13 4 7 1020.4 1020.4 0.0
02/12:00am 2.6 -0.3 2.6 100 0.0 WSW 7 9 4 5 1020.8 1020.8 0.0
 
Date/Time
EST
Tmp

°C
App
Tmp
°C
Dew
Point
°C
Rel
Hum
%
Delta-T

°C
Wind Press
QNH
hPa
Press
MSL
hPa
Rain
since
9 am
mm
Dir
 
Spd
km/h
Gust
km/h
Spd
kts
Gust
kts
01/11:58pm 2.5 -0.4 2.5 100 0.0 WSW 7 9 4 5 1020.8 1020.8 0.0
01/11:39pm 2.1 -0.7 2.1 100 0.0 NW 6 7 3 4 1020.8 1020.8 0.0
01/11:30pm 2.4 0.8 2.4 100 0.0 CALM 0 7 0 4 1020.8 1020.8 0.0
01/11:17pm 2.5 0.9 2.5 100 0.0 CALM 0 0 0 0 1021.0 1021.0 0.0
01/11:00pm 2.8 0.9 2.8 100 0.0 WNW 2 7 1 4 1021.0 1021.0 0.0
01/10:44pm 2.7 0.4 2.7 100 0.0 W 4 7 2 4 1021.0 1021.0 0.0
01/10:30pm 3.2 0.6 3.2 100 0.0 WNW 6 7 3 4 1020.9 1020.9 0.0
01/10:25pm 2.8 0.1 2.8 100 0.0 WNW 6 7 3 4 1020.9 1020.9 0.0
01/10:05pm 2.8 1.3 2.8 100 0.0 CALM 0 0 0 0 1020.7 1020.7 0.0
01/10:00pm 3.4 2.0 3.4 100 0.0 CALM 0 0 0 0 1020.7 1020.7 0.0
01/09:57pm 3.4 2.0 3.4 100 0.0 CALM 0 0 0 0 1020.6 1020.6 0.0
01/09:36pm 3.7 1.2 3.7 100 0.0 NW 6 9 3 5 1021.2 1021.2 0.0
01/09:30pm 4.3 1.3 4.3 100 0.0 NW 9 11 5 6 1021.3 1021.3 0.0
01/09:00pm 4.5 2.0 4.5 100 0.0 WNW 7 9 4 5 1021.5 1021.5 0.0
01/08:55pm 3.8 1.1 3.8 100 0.0 WNW 7 9 4 5 1021.4 1021.4 0.0
01/08:37pm 4.4 2.8 4.4 100 0.0 NW 2 6 1 3 1021.5 1021.5 0.0
01/08:30pm 4.4 2.8 4.4 100 0.0 NW 2 7 1 4 1021.6 1021.6 0.0
01/08:00pm 4.8 2.5 4.8 100 0.0 WNW 6 7 3 4 1021.7 1021.7 0.0
01/07:30pm 5.2 3.0 5.2 100 0.0 WNW 6 7 3 4 1021.4 1021.4 0.0
01/07:00pm 6.0 5.1 6.0 100 0.0 CALM 0 4 0 2 1021.4 1021.4 0.0
01/06:30pm 7.2 6.2 7.2 100 0.0 W 2 7 1 4 1021.6 1021.6 0.0
01/06:00pm 7.9 6.1 7.9 100 0.0 NW 7 9 4 5 1021.6 1021.6 0.0
01/05:30pm 8.3 6.3 7.2 93 0.5 NNW 7 9 4 5 1021.6 1021.6 0.0
01/05:00pm 10.7 8.7 7.2 79 1.7 N 7 11 4 6 1021.4 1021.4 0.0
01/04:30pm 12.9 10.5 7.1 68 2.8 NNE 9 13 5 7 1021.6 1021.6 0.0
01/04:00pm 14.8 12.4 6.9 59 3.8 NE 9 13 5 7 1021.6 1021.6 0.0
01/03:30pm 15.4 12.9 6.7 56 4.2 NE 9 13 5 7 1021.9 1021.9 0.0
01/03:00pm 15.6 12.7 6.6 55 4.4 ENE 11 13 6 7 1022.0 1022.0 0.0
01/02:30pm 16.5 14.3 6.1 50 5.1 NNW 7 13 4 7 1022.2 1022.2 0.0
01/02:00pm 16.3 14.0 5.6 49 5.1 NW 7 11 4 6 1022.5 1022.5 0.0
01/01:30pm 16.3 14.0 5.9 50 5.0 NW 7 13 4 7 1023.1 1023.1 0.0
01/01:00pm 16.0 13.9 5.6 50 5.0 NW 6 11 3 6 1023.5 1023.5 0.0
01/12:30pm 15.7 13.1 6.2 53 4.6 W 9 15 5 8 1024.0 1024.0 0.0
01/12:00pm 15.2 12.6 6.2 55 4.3 WSW 9 13 5 7 1024.6 1024.6 0.0
01/11:30am 15.0 12.1 6.6 57 4.1 W 11 17 6 9 1025.3 1025.3 0.0
01/11:00am 14.3 11.8 6.6 60 3.7 WNW 9 13 5 7 1025.9 1025.9 0.0
01/10:30am 13.3 10.9 6.9 65 3.1 WNW 9 13 5 7 1026.5 1026.5 0.0
01/10:00am 11.9 8.9 6.0 67 2.7 W 11 15 6 8 1026.6 1026.6 0.0
01/09:30am 10.8 7.8 5.8 71 2.3 W 11 15 6 8 1026.6 1026.6 0.0
01/09:00am 9.6 6.9 5.8 77 1.7 W 9 15 5 8 1026.6 1026.6 0.0
01/08:30am 8.3 5.5 5.1 80 1.4 W 9 13 5 7 1026.4 1026.4 0.0
01/08:00am 6.5 3.7 5.1 91 0.6 WSW 9 13 5 7 1026.2 1026.2 0.0
01/07:30am 4.8 2.2 4.1 95 0.3 W 7 11 4 6 1026.0 1026.0 0.0
01/07:00am 4.2 1.5 3.5 95 0.3 WSW 7 9 4 5 1025.8 1025.8 0.0
01/06:30am 6.1 3.5 4.1 87 0.9 W 7 11 4 6 1025.6 1025.6 0.0
01/06:00am 6.4 3.5 4.4 87 0.9 W 9 15 5 8 1025.6 1025.6 0.0
01/05:30am 6.5 3.5 4.2 85 1.0 WSW 9 13 5 7 1025.3 1025.3 0.0
01/05:00am 6.5 3.2 4.5 87 0.9 W 11 15 6 8 1025.2 1025.2 0.0
01/04:30am 6.3 3.8 4.6 89 0.7 W 7 11 4 6 1025.3 1025.3 0.0
01/04:00am 6.8 3.9 4.8 87 0.9 W 9 11 5 6 1025.3 1025.3 0.0
01/03:30am 6.1 3.7 5.1 93 0.4 W 7 9 4 5 1025.4 1025.4 0.0
01/03:00am 6.3 3.9 5.4 94 0.4 WSW 7 11 4 6 1025.6 1025.6 0.0
01/02:30am 7.3 4.5 5.3 87 0.9 WSW 9 15 5 8 1025.9 1025.9 0.0
01/02:00am 7.5 5.1 5.3 86 1.0 W 7 11 4 6 1025.8 1025.8 0.0
01/01:30am 7.2 4.4 5.3 88 0.8 WSW 9 11 5 6 1025.9 1025.9 0.0
01/01:00am 8.4 5.7 5.7 83 1.2 WSW 9 11 5 6 1025.8 1025.8 0.0
01/12:30am 8.7 6.4 5.8 82 1.3 SW 7 13 4 7 1026.1 1026.1 0.0
01/12:00am 8.4 5.8 6.0 85 1.1 WSW 9 13 5 7 1026.0 1026.0 0.0
 
Date/Time
EST
Tmp

°C
App
Tmp
°C
Dew
Point
°C
Rel
Hum
%
Delta-T

°C
Wind Press
QNH
hPa
Press
MSL
hPa
Rain
since
9 am
mm
Dir
 
Spd
km/h
Gust
km/h
Spd
kts
Gust
kts
30/11:30pm 8.3 6.3 6.1 86 1.0 WNW 6 7 3 4 1026.0 1026.0 0.0
30/11:00pm 9.8 7.7 5.8 76 1.8 WNW 6 9 3 5 1025.8 1025.8 0.0
30/10:30pm 10.5 7.6 6.3 75 2.0 WSW 11 15 6 8 1026.0 1026.0 0.0
30/10:00pm 10.1 7.2 6.4 78 1.7 WSW 11 15 6 8 1026.1 1026.1 0.0
30/09:30pm 9.3 6.4 6.4 82 1.3 SW 11 15 6 8 1026.0 1026.0 0.0
30/09:00pm 10.3 7.9 7.0 80 1.6 W 9 15 5 8 1025.7 1025.7 0.0
30/08:30pm 10.8 8.6 7.9 82 1.4 W 9 13 5 7 1025.7 1025.7 0.0
30/08:00pm 11.3 9.5 9.4 88 0.9 W 9 13 5 7 1025.6 1025.6 0.0
30/07:30pm 11.4 9.1 10.3 93 0.6 W 13 17 7 9 1025.5 1025.5 0.0
30/07:00pm 10.7 8.9 10.7 100 0.0 WSW 11 15 6 8 1025.2 1025.2 0.0
30/06:30pm 9.9 7.9 8.5 91 0.7 W 9 13 5 7 1025.0 1025.0 0.0
30/06:00pm 9.8 7.4 7.2 84 1.2 SW 9 11 5 6 1024.9 1024.9 0.0
30/05:30pm 11.4 9.6 7.3 76 2.0 NNW 6 11 3 6 1024.6 1024.6 0.0
30/05:00pm 12.6 11.0 7.9 73 2.3 W 6 11 3 6 1024.3 1024.3 0.0
30/04:30pm 13.2 11.1 8.3 72 2.4 SW 9 13 5 7 1023.9 1023.9 0.0
30/04:00pm 16.4 15.4 7.3 55 4.5 WNW 2 7 1 4 1023.8 1023.8 0.0
30/03:30pm 18.0 16.3 7.4 50 5.3 WNW 6 9 3 5 1023.7 1023.7 0.0
30/03:00pm 17.8 14.9 6.3 47 5.6 WNW 11 17 6 9 1023.5 1023.5 0.0
30/02:30pm 18.2 15.3 6.7 47 5.7 NW 11 22 6 12 1023.5 1023.5 0.0
30/02:00pm 18.2 15.0 6.7 47 5.7 NW 13 24 7 13 1023.7 1023.7 0.0
30/01:30pm 18.1 14.3 6.0 45 5.9 NW 15 26 8 14 1023.9 1023.9 0.0
30/01:00pm 17.8 13.8 6.7 48 5.5 WNW 17 24 9 13 1024.4 1024.4 0.0
30/12:30pm 17.5 14.1 7.5 52 5.0 WNW 15 26 8 14 1024.8 1024.8 0.0
30/12:00pm 16.9 13.4 7.0 52 4.9 WNW 15 24 8 13 1025.4 1025.4 0.0
30/11:30am 16.7 13.6 7.1 53 4.8 NW 13 20 7 11 1026.1 1026.1 0.0
30/11:00am 15.6 13.9 8.4 62 3.6 NNW 7 17 4 9 1026.8 1026.8 0.0
30/10:30am 14.4 11.4 7.7 64 3.3 NW 13 20 7 11 1027.3 1027.3 0.0
30/10:00am 12.2 11.0 10.4 89 0.9 NNW 7 9 4 5 1027.5 1027.5 0.0
30/09:30am 10.4 10.6 10.4 100 0.0 CALM 0 0 0 0 1027.7 1027.7 0.0
30/09:00am 8.7 8.0 8.7 100 0.0 NW 2 7 1 4 1027.8 1027.8 0.0
30/08:30am 6.9 6.2 6.9 100 0.0 CALM 0 0 0 0 1027.6 1027.6 0.0
30/08:14am 5.1 4.0 5.1 100 0.0 CALM 0 0 0 0 1027.9 1027.9 0.0
30/08:00am 4.0 2.7 4.0 100 0.0 CALM 0 6 0 3 1028.0 1028.0 0.0

Latest Capital City Observations: Canberra | Sydney | Melbourne | Brisbane | Adelaide | Perth | Hobart | Darwin

Other Formats:

Comma delimited format used in spreadsheet applications
http://www.bom.gov.au/fwo/IDN60903/IDN60903.95937.axf

JavaScript Object Notation format (JSON) in row-major order
http://www.bom.gov.au/fwo/IDN60903/IDN60903.95937.json